createdAt,value
2023-11-24T00:02:53.773Z,0.28
2023-11-24T00:06:13.528Z,0.32
2023-11-24T00:09:52.176Z,0.30
2023-11-24T00:13:04.200Z,0.27
2023-11-24T00:16:36.951Z,0.21
2023-11-24T00:19:52.456Z,0.10
2023-11-24T00:23:07.915Z,0.07
2023-11-24T00:26:22.484Z,-0.03
2023-11-24T00:29:45.956Z,-0.24
2023-11-24T00:33:12.336Z,-0.35
2023-11-24T00:36:35.368Z,-0.55
2023-11-24T00:39:44.881Z,-0.58
2023-11-24T00:43:04.270Z,-0.66
2023-11-24T00:46:36.710Z,-0.72
2023-11-24T00:49:45.467Z,-0.68
2023-11-24T00:53:04.458Z,-0.76
2023-11-24T00:56:43.816Z,-0.89
2023-11-24T01:00:14.236Z,-0.82
2023-11-24T01:03:44.304Z,-0.79
2023-11-24T01:07:30.497Z,-0.81
2023-11-24T01:10:52.384Z,-0.88
2023-11-24T01:14:19.464Z,-0.89
2023-11-24T01:18:02.329Z,-0.88
2023-11-24T01:21:32.571Z,-0.84
2023-11-24T01:24:53.713Z,-0.77
2023-11-24T01:28:40.356Z,-0.74
2023-11-24T01:32:25.865Z,-0.71
2023-11-24T03:51:01.346Z,0.17
2023-11-24T03:54:27.122Z,0.20
2023-11-24T03:57:47.195Z,0.21
2023-11-24T04:01:17.379Z,0.22
2023-11-24T04:08:11.432Z,0.38
2023-11-24T04:11:46.552Z,0.48
2023-11-24T04:15:25.767Z,0.52
2023-11-24T06:43:33.780Z,1.14
2023-11-24T06:47:27.483Z,1.22
2023-11-24T06:51:07.789Z,1.32
2023-11-24T06:54:59.731Z,1.38
2023-11-24T06:58:36.604Z,1.42
2023-11-24T07:02:06.292Z,1.50
2023-11-24T07:25:03.162Z,1.69
2023-11-24T07:28:56.218Z,1.79
2023-11-24T07:32:49.341Z,1.88
2023-11-24T07:36:44.602Z,1.80
2023-11-24T08:04:02.511Z,2.50
2023-11-24T08:07:57.710Z,2.61
2023-11-24T08:11:51.307Z,2.65
2023-11-24T08:15:46.198Z,2.68
2023-11-24T08:31:07.846Z,2.90
2023-11-24T08:34:19.891Z,2.91
2023-11-24T08:37:33.247Z,2.96
2023-11-24T08:40:55.060Z,3.07
2023-11-24T08:44:27.729Z,3.22
2023-11-24T08:47:27.492Z,3.36
2023-11-24T08:51:06.068Z,3.52
2023-11-24T08:54:30.855Z,3.67
2023-11-24T08:58:01.204Z,3.79
2023-11-24T09:01:01.937Z,4.21
2023-11-24T09:04:32.864Z,4.58
2023-11-24T09:07:58.127Z,4.88
2023-11-24T09:11:24.087Z,5.17
2023-11-24T09:38:49.897Z,5.79
2023-11-24T09:48:34.272Z,5.42
2023-11-24T09:51:52.958Z,5.28
2023-11-24T09:55:07.366Z,5.30
2023-11-24T09:58:41.113Z,5.40
2023-11-24T10:01:49.824Z,5.54
2023-11-24T10:05:18.624Z,5.74
2023-11-24T10:08:24.188Z,6.00
2023-11-24T10:12:05.991Z,6.15
2023-11-24T10:15:39.017Z,6.22
2023-11-24T10:19:21.882Z,6.24
2023-11-24T10:23:17.921Z,6.25
2023-11-24T10:26:51.593Z,6.26
2023-11-24T10:29:57.086Z,6.29
2023-11-24T10:51:04.340Z,6.45
2023-11-24T10:54:42.807Z,6.49
2023-11-24T10:58:06.544Z,6.55
2023-11-24T11:01:58.016Z,6.60
2023-11-24T11:05:26.067Z,6.65
2023-11-24T11:09:09.547Z,6.65
2023-11-24T11:12:45.903Z,6.72
2023-11-24T11:16:23.283Z,6.86
2023-11-24T11:20:08.369Z,7.06
2023-11-24T11:23:59.585Z,7.28
2023-11-24T11:27:46.764Z,7.56
2023-11-24T12:01:01.242Z,7.87
2023-11-24T12:04:55.059Z,7.83
2023-11-24T12:08:50.750Z,7.89
2023-11-24T12:12:43.818Z,7.89
2023-11-24T12:28:25.213Z,8.63
2023-11-24T12:32:18.082Z,8.88
2023-11-24T12:36:11.743Z,9.05
2023-11-24T12:40:00.038Z,9.21
2023-11-24T13:41:18.449Z,10.63
2023-11-24T13:45:10.674Z,10.65
2023-11-24T13:49:03.915Z,10.42
2023-11-24T13:55:58.907Z,9.73
2023-11-24T13:59:13.789Z,9.47
2023-11-24T14:02:24.619Z,9.08
2023-11-24T14:05:54.332Z,8.86
2023-11-24T14:09:33.605Z,8.61
2023-11-24T14:12:39.141Z,8.36
2023-11-24T14:15:25.032Z,8.03
2023-11-24T14:18:39.724Z,7.80
2023-11-24T14:21:28.415Z,7.49
2023-11-24T14:24:44.049Z,7.28
2023-11-24T14:28:16.411Z,7.03
2023-11-24T14:31:14.301Z,6.79
2023-11-24T14:34:39.541Z,6.61
2023-11-24T14:37:44.623Z,6.39
2023-11-24T14:41:02.751Z,6.24
2023-11-24T14:44:33.997Z,6.07
2023-11-24T14:48:02.775Z,5.93
2023-11-24T14:51:09.270Z,5.79
2023-11-24T14:54:15.542Z,5.66
2023-11-24T14:57:32.597Z,5.53
2023-11-24T15:00:33.710Z,5.35
2023-11-24T15:03:35.326Z,5.23
2023-11-24T15:06:48.181Z,5.13
2023-11-24T15:10:12.904Z,5.02
2023-11-24T15:13:06.905Z,4.96
2023-11-24T15:16:54.157Z,4.91
2023-11-24T15:20:27.033Z,4.81
2023-11-24T15:24:22.873Z,4.67
2023-11-24T15:28:01.729Z,4.49
2023-11-24T15:31:09.606Z,4.40
2023-11-24T15:34:52.760Z,4.31
2023-11-24T15:38:23.531Z,4.18
2023-11-24T15:42:04.206Z,4.13
2023-11-24T15:45:32.510Z,4.07
2023-11-24T15:48:50.936Z,4.05
2023-11-24T15:52:04.909Z,4.02
2023-11-24T16:55:38.685Z,3.36
2023-11-24T17:14:31.072Z,2.96
2023-11-24T17:18:23.836Z,2.74
2023-11-24T17:22:16.802Z,2.58
2023-11-24T17:38:02.720Z,2.17
2023-11-24T18:00:18.064Z,1.66
2023-11-24T18:04:10.992Z,1.56
2023-11-24T18:07:49.216Z,1.43
2023-11-24T18:10:41.156Z,1.38
2023-11-24T18:13:53.143Z,1.40
2023-11-24T18:16:49.417Z,1.38
2023-11-24T18:20:15.550Z,1.37
2023-11-24T18:24:02.576Z,1.30
2023-11-24T18:43:30.279Z,1.12
2023-11-24T18:47:27.188Z,0.99
2023-11-24T18:51:10.375Z,0.87
2023-11-24T19:06:01.803Z,0.64
2023-11-24T19:09:47.493Z,0.56
2023-11-24T19:13:17.400Z,0.41
2023-11-24T19:32:25.620Z,0.27
2023-11-24T19:36:19.137Z,0.20
2023-11-24T19:39:54.595Z,0.11
2023-11-24T19:43:32.806Z,-0.10
2023-11-24T19:47:27.696Z,-0.10
2023-11-24T20:07:04.782Z,0.14
2023-11-24T20:10:58.503Z,0.11
2023-11-24T20:14:51.861Z,0.09
2023-11-24T20:18:45.410Z,0.09
2023-11-24T20:45:42.050Z,-0.10
2023-11-24T20:49:35.159Z,-0.22
2023-11-24T20:53:27.422Z,-0.28
2023-11-24T20:57:21.661Z,-0.34
2023-11-24T22:12:52.436Z,-0.65
2023-11-24T22:16:45.602Z,-0.68
2023-11-24T22:20:42.891Z,-0.70
2023-11-24T22:36:44.986Z,-0.51
2023-11-24T23:04:04.591Z,-0.33
2023-11-24T23:07:57.458Z,-0.36
2023-11-24T23:11:50.543Z,-0.36
2023-11-24T23:15:45.015Z,-0.40
2023-11-24T23:31:38.195Z,-0.40
2023-11-24T23:35:19.953Z,-0.49
2023-11-24T23:38:54.852Z,-0.48
2023-11-24T23:54:09.645Z,-0.31
2023-11-24T23:58:03.053Z,-0.34
